Roseann, Pennsylvania
Current Conditions -  °F | °C
As of 6:53 AM on Thursday 18 Dec 2014 (Local Time) from KUNV Reporting Station
Overcast Overcast  
Wind Chill: -8°   Ceiling: 2600
Heat Index: -2°   Visibility: 10mi
Dew Point: -6°   Wind: 12mph
Humidity: 74%   Direction: 310°NW
Pressure: 30.08"   Gusts: 18mph
Location:  40.7567°N, 77.488°W
Report Text: KUNV 181153Z 31010G16KT 10SM OVC026 M02/M06 A3008
Loading
Personal Weather Stations






























Interactive Weather Map New forecast layout! Learn more

10-Day Weather Forecast

Advertisements
Track Severe Weather on mobile